<?xml version="1.0" encoding="UTF-8"?><gpx xmlns="http://www.topografix.com/GPX/1/1" version="1.1" creator="iOrient"><trk><name>Рогейн "КурсОр-2025"</name><trkseg><trkpt lat="55.6287698" lon="49.4888624"><time>2025-05-18T07:47:24.310</time></trkpt><trkpt lat="55.6287891" lon="49.4889492"><time>2025-05-18T07:47:28.310</time></trkpt><trkpt lat="55.6288256" lon="49.4890179"><time>2025-05-18T07:47:32.307</time></trkpt><trkpt lat="55.6288170" lon="49.4891083"><time>2025-05-18T07:47:37.310</time></trkpt><trkpt lat="55.6287770" lon="49.4891469"><time>2025-05-18T07:47:41.307</time></trkpt><trkpt lat="55.6287434" lon="49.4892020"><time>2025-05-18T07:47:45.303</time></trkpt><trkpt lat="55.6286936" lon="49.4891997"><time>2025-05-18T07:47:51.310</time></trkpt><trkpt lat="55.6286562" lon="49.4891281"><time>2025-05-18T07:47:56.313</time></trkpt><trkpt lat="55.6286135" lon="49.4890773"><time>2025-05-18T07:48:00.313</time></trkpt><trkpt lat="55.6285699" lon="49.4890270"><time>2025-05-18T07:48:04.310</time></trkpt><trkpt lat="55.6285167" lon="49.4889871"><time>2025-05-18T07:48:08.303</time></trkpt><trkpt lat="55.6284749" lon="49.4889403"><time>2025-05-18T07:48:12.303</time></trkpt><trkpt lat="55.6284303" lon="49.4888890"><time>2025-05-18T07:48:16.327</time></trkpt><trkpt lat="55.6283929" lon="49.4888324"><time>2025-05-18T07:48:20.310</time></trkpt><trkpt lat="55.6283868" lon="49.4887347"><time>2025-05-18T07:48:24.303</time></trkpt><trkpt lat="55.6283454" lon="49.4886747"><time>2025-05-18T07:48:28.310</time></trkpt><trkpt lat="55.6283124" lon="49.4886208"><time>2025-05-18T07:48:31.297</time></trkpt><trkpt lat="55.6282678" lon="49.4885611"><time>2025-05-18T07:48:36.303</time></trkpt><trkpt lat="55.6282203" lon="49.4885293"><time>2025-05-18T07:48:40.313</time></trkpt><trkpt lat="55.6281756" lon="49.4884796"><time>2025-05-18T07:48:44.310</time></trkpt><trkpt lat="55.6281754" lon="49.4883968"><time>2025-05-18T07:48:49.313</time></trkpt><trkpt lat="55.6281479" lon="49.4883212"><time>2025-05-18T07:48:56.310</time></trkpt><trkpt lat="55.6281139" lon="49.4882562"><time>2025-05-18T07:49:00.313</time></trkpt><trkpt lat="55.6280871" lon="49.4881801"><time>2025-05-18T07:49:05.310</time></trkpt><trkpt lat="55.6280614" lon="49.4881032"><time>2025-05-18T07:49:10.310</time></trkpt><trkpt lat="55.6280554" lon="49.4880140"><time>2025-05-18T07:49:15.313</time></trkpt><trkpt lat="55.6280953" lon="49.4879731"><time>2025-05-18T07:49:20.310</time></trkpt><trkpt lat="55.6281457" lon="49.4879760"><time>2025-05-18T07:49:26.303</time></trkpt><trkpt lat="55.6281925" lon="49.4879582"><time>2025-05-18T07:49:33.310</time></trkpt><trkpt lat="55.6282392" lon="49.4879473"><time>2025-05-18T07:49:41.300</time></trkpt><trkpt lat="55.6282497" lon="49.4878991"><time>2025-05-18T07:49:46.267</time></trkpt><trkpt lat="55.6281926" lon="49.4879569"><time>2025-05-18T07:50:00.353</time></trkpt><trkpt lat="55.6281446" lon="49.4879660"><time>2025-05-18T07:50:09.327</time></trkpt><trkpt lat="55.6281000" lon="49.4879823"><time>2025-05-18T07:50:13.323</time></trkpt><trkpt lat="55.6280486" lon="49.4879871"><time>2025-05-18T07:50:17.320</time></trkpt><trkpt lat="55.6280028" lon="49.4879269"><time>2025-05-18T07:50:22.313</time></trkpt><trkpt lat="55.6279856" lon="49.4878512"><time>2025-05-18T07:50:26.323</time></trkpt><trkpt lat="55.6279514" lon="49.4877881"><time>2025-05-18T07:50:30.327</time></trkpt><trkpt lat="55.6279202" lon="49.4877084"><time>2025-05-18T07:50:34.330</time></trkpt><trkpt lat="55.6278969" lon="49.4876160"><time>2025-05-18T07:50:38.303</time></trkpt><trkpt lat="55.6278827" lon="49.4875255"><time>2025-05-18T07:50:42.327</time></trkpt><trkpt lat="55.6278636" lon="49.4874439"><time>2025-05-18T07:50:46.323</time></trkpt><trkpt lat="55.6278379" lon="49.4873636"><time>2025-05-18T07:50:50.340</time></trkpt><trkpt lat="55.6278119" lon="49.4872842"><time>2025-05-18T07:50:54.333</time></trkpt><trkpt lat="55.6277866" lon="49.4871974"><time>2025-05-18T07:50:58.343</time></trkpt><trkpt lat="55.6277518" lon="49.4871277"><time>2025-05-18T07:51:02.323</time></trkpt><trkpt lat="55.6277274" lon="49.4870498"><time>2025-05-18T07:51:06.317</time></trkpt><trkpt lat="55.6277369" lon="49.4869618"><time>2025-05-18T07:51:11.297</time></trkpt><trkpt lat="55.6277545" lon="49.4868831"><time>2025-05-18T07:51:14.333</time></trkpt><trkpt lat="55.6277677" lon="49.4868044"><time>2025-05-18T07:51:17.320</time></trkpt><trkpt lat="55.6277884" lon="49.4867279"><time>2025-05-18T07:51:20.323</time></trkpt><trkpt lat="55.6278203" lon="49.4866488"><time>2025-05-18T07:51:24.300</time></trkpt><trkpt lat="55.6278599" lon="49.4865709"><time>2025-05-18T07:51:28.310</time></trkpt><trkpt lat="55.6279013" lon="49.4865029"><time>2025-05-18T07:51:32.320</time></trkpt><trkpt lat="55.6279385" lon="49.4864559"><time>2025-05-18T07:51:36.327</time></trkpt><trkpt lat="55.6287955" lon="49.4813767"><time>2025-05-18T07:55:45.300</time></trkpt><trkpt lat="55.6287872" lon="49.4812932"><time>2025-05-18T07:55:48.300</time></trkpt><trkpt lat="55.6287644" lon="49.4813038"><time>2025-05-18T07:55:56.163</time></trkpt><trkpt lat="55.6287414" lon="49.4812965"><time>2025-05-18T07:56:08.297</time></trkpt><trkpt lat="55.6286979" lon="49.4812667"><time>2025-05-18T07:56:15.310</time></trkpt><trkpt lat="55.6286588" lon="49.4812215"><time>2025-05-18T07:56:22.300</time></trkpt><trkpt lat="55.6286098" lon="49.4812115"><time>2025-05-18T07:56:28.300</time></trkpt><trkpt lat="55.6285587" lon="49.4811813"><time>2025-05-18T07:56:33.320</time></trkpt><trkpt lat="55.6285107" lon="49.4811656"><time>2025-05-18T07:56:37.303</time></trkpt><trkpt lat="55.6284661" lon="49.4811430"><time>2025-05-18T07:56:41.310</time></trkpt><trkpt lat="55.6284154" lon="49.4811125"><time>2025-05-18T07:56:45.307</time></trkpt><trkpt lat="55.6283674" lon="49.4810718"><time>2025-05-18T07:56:49.307</time></trkpt><trkpt lat="55.6283181" lon="49.4810454"><time>2025-05-18T07:56:53.307</time></trkpt><trkpt lat="55.6282699" lon="49.4810227"><time>2025-05-18T07:56:58.307</time></trkpt><trkpt lat="55.6282136" lon="49.4809988"><time>2025-05-18T07:57:03.310</time></trkpt><trkpt lat="55.6281621" lon="49.4809739"><time>2025-05-18T07:57:07.313</time></trkpt><trkpt lat="55.6281174" lon="49.4809550"><time>2025-05-18T07:57:12.310</time></trkpt><trkpt lat="55.6280660" lon="49.4809540"><time>2025-05-18T07:57:17.303</time></trkpt><trkpt lat="55.6280125" lon="49.4809482"><time>2025-05-18T07:57:22.293</time></trkpt><trkpt lat="55.6279723" lon="49.4809944"><time>2025-05-18T07:57:26.297</time></trkpt><trkpt lat="55.6279270" lon="49.4809958"><time>2025-05-18T07:57:29.293</time></trkpt><trkpt lat="55.6278811" lon="49.4809393"><time>2025-05-18T07:57:33.300</time></trkpt><trkpt lat="55.6278376" lon="49.4808904"><time>2025-05-18T07:57:36.297</time></trkpt><trkpt lat="55.6277828" lon="49.4808486"><time>2025-05-18T07:57:39.307</time></trkpt><trkpt lat="55.6277443" lon="49.4808076"><time>2025-05-18T07:57:42.293</time></trkpt><trkpt lat="55.6276899" lon="49.4808050"><time>2025-05-18T07:57:46.293</time></trkpt><trkpt lat="55.6276583" lon="49.4807438"><time>2025-05-18T07:57:49.297</time></trkpt><trkpt lat="55.6275982" lon="49.4807569"><time>2025-05-18T07:57:52.297</time></trkpt><trkpt lat="55.6275576" lon="49.4807953"><time>2025-05-18T07:57:55.293</time></trkpt><trkpt lat="55.6275205" lon="49.4807319"><time>2025-05-18T07:57:58.300</time></trkpt><trkpt lat="55.6274786" lon="49.4807022"><time>2025-05-18T07:58:03.293</time></trkpt><trkpt lat="55.6274181" lon="49.4806683"><time>2025-05-18T07:58:06.293</time></trkpt><trkpt lat="55.6273779" lon="49.4806131"><time>2025-05-18T07:58:10.300</time></trkpt><trkpt lat="55.6273613" lon="49.4804869"><time>2025-05-18T07:58:14.297</time></trkpt><trkpt lat="55.6273162" lon="49.4804496"><time>2025-05-18T07:58:18.297</time></trkpt><trkpt lat="55.6272668" lon="49.4804472"><time>2025-05-18T07:58:22.297</time></trkpt><trkpt lat="55.6272088" lon="49.4804317"><time>2025-05-18T07:58:26.297</time></trkpt><trkpt lat="55.6271445" lon="49.4804535"><time>2025-05-18T07:58:29.297</time></trkpt><trkpt lat="55.6270894" lon="49.4804758"><time>2025-05-18T07:58:31.293</time></trkpt><trkpt lat="55.6270550" lon="49.4804064"><time>2025-05-18T07:58:34.297</time></trkpt><trkpt lat="55.6270277" lon="49.4803225"><time>2025-05-18T07:58:38.297</time></trkpt><trkpt lat="55.6269791" lon="49.4803050"><time>2025-05-18T07:58:43.300</time></trkpt><trkpt lat="55.6269325" lon="49.4802524"><time>2025-05-18T07:58:48.297</time></trkpt><trkpt lat="55.6269343" lon="49.4801614"><time>2025-05-18T07:58:50.297</time></trkpt><trkpt lat="55.6269217" lon="49.4800825"><time>2025-05-18T07:58:52.297</time></trkpt><trkpt lat="55.6269298" lon="49.4799579"><time>2025-05-18T07:58:54.293</time></trkpt><trkpt lat="55.6268868" lon="49.4799109"><time>2025-05-18T07:58:58.297</time></trkpt><trkpt lat="55.6268367" lon="49.4798999"><time>2025-05-18T07:59:02.300</time></trkpt><trkpt lat="55.6267730" lon="49.4798886"><time>2025-05-18T07:59:06.300</time></trkpt><trkpt lat="55.6267313" lon="49.4799245"><time>2025-05-18T07:59:08.297</time></trkpt><trkpt lat="55.6266756" lon="49.4799766"><time>2025-05-18T07:59:11.297</time></trkpt><trkpt lat="55.6266175" lon="49.4800333"><time>2025-05-18T07:59:14.297</time></trkpt><trkpt lat="55.6265709" lon="49.4800194"><time>2025-05-18T07:59:17.297</time></trkpt><trkpt lat="55.6265142" lon="49.4800034"><time>2025-05-18T07:59:21.297</time></trkpt><trkpt lat="55.6264629" lon="49.4799736"><time>2025-05-18T07:59:25.300</time></trkpt><trkpt lat="55.6264126" lon="49.4799893"><time>2025-05-18T07:59:28.297</time></trkpt><trkpt lat="55.6263493" lon="49.4799810"><time>2025-05-18T07:59:31.297</time></trkpt><trkpt lat="55.6262997" lon="49.4799767"><time>2025-05-18T07:59:35.300</time></trkpt><trkpt lat="55.6262427" lon="49.4799896"><time>2025-05-18T07:59:39.297</time></trkpt><trkpt lat="55.6261805" lon="49.4800052"><time>2025-05-18T07:59:42.297</time></trkpt><trkpt lat="55.6261432" lon="49.4799575"><time>2025-05-18T07:59:47.297</time></trkpt><trkpt lat="55.6260984" lon="49.4799268"><time>2025-05-18T07:59:50.293</time></trkpt><trkpt lat="55.6260474" lon="49.4799165"><time>2025-05-18T07:59:53.297</time></trkpt><trkpt lat="55.6260411" lon="49.4798175"><time>2025-05-18T07:59:56.297</time></trkpt><trkpt lat="55.6259836" lon="49.4798010"><time>2025-05-18T08:00:00.297</time></trkpt><trkpt lat="55.6259255" lon="49.4798429"><time>2025-05-18T08:00:03.297</time></trkpt><trkpt lat="55.6258846" lon="49.4798056"><time>2025-05-18T08:00:06.293</time></trkpt><trkpt lat="55.6258353" lon="49.4797638"><time>2025-05-18T08:00:11.293</time></trkpt><trkpt lat="55.6257795" lon="49.4797644"><time>2025-05-18T08:00:15.293</time></trkpt><trkpt lat="55.6257267" lon="49.4797192"><time>2025-05-18T08:00:19.297</time></trkpt><trkpt lat="55.6256722" lon="49.4796965"><time>2025-05-18T08:00:23.297</time></trkpt><trkpt lat="55.6256247" lon="49.4796705"><time>2025-05-18T08:00:27.293</time></trkpt><trkpt lat="55.6255815" lon="49.4796331"><time>2025-05-18T08:00:31.293</time></trkpt><trkpt lat="55.6255266" lon="49.4796068"><time>2025-05-18T08:00:35.297</time></trkpt><trkpt lat="55.6254771" lon="49.4795824"><time>2025-05-18T08:00:39.297</time></trkpt><trkpt lat="55.6254258" lon="49.4795533"><time>2025-05-18T08:00:43.297</time></trkpt><trkpt lat="55.6253731" lon="49.4795507"><time>2025-05-18T08:00:48.293</time></trkpt><trkpt lat="55.6253161" lon="49.4795484"><time>2025-05-18T08:00:53.297</time></trkpt><trkpt lat="55.6252675" lon="49.4795181"><time>2025-05-18T08:00:57.297</time></trkpt><trkpt lat="55.6252177" lon="49.4794926"><time>2025-05-18T08:01:02.300</time></trkpt><trkpt lat="55.6251648" lon="49.4794986"><time>2025-05-18T08:01:06.297</time></trkpt><trkpt lat="55.6251138" lon="49.4794768"><time>2025-05-18T08:01:11.297</time></trkpt><trkpt lat="55.6250619" lon="49.4794666"><time>2025-05-18T08:01:15.300</time></trkpt><trkpt lat="55.6250073" lon="49.4794418"><time>2025-05-18T08:01:20.297</time></trkpt><trkpt lat="55.6249589" lon="49.4794118"><time>2025-05-18T08:01:24.307</time></trkpt><trkpt lat="55.6249129" lon="49.4794075"><time>2025-05-18T08:01:28.293</time></trkpt><trkpt lat="55.6248628" lon="49.4793905"><time>2025-05-18T08:01:32.303</time></trkpt><trkpt lat="55.6248116" lon="49.4793713"><time>2025-05-18T08:01:36.297</time></trkpt><trkpt lat="55.6247632" lon="49.4793391"><time>2025-05-18T08:01:40.297</time></trkpt><trkpt lat="55.6247199" lon="49.4793089"><time>2025-05-18T08:01:44.297</time></trkpt><trkpt lat="55.6246745" lon="49.4792890"><time>2025-05-18T08:01:48.293</time></trkpt><trkpt lat="55.6246199" lon="49.4792808"><time>2025-05-18T08:01:52.297</time></trkpt><trkpt lat="55.6245684" lon="49.4792644"><time>2025-05-18T08:01:56.297</time></trkpt><trkpt lat="55.6245167" lon="49.4792421"><time>2025-05-18T08:02:01.297</time></trkpt><trkpt lat="55.6244634" lon="49.4792259"><time>2025-05-18T08:02:06.293</time></trkpt><trkpt lat="55.6244192" lon="49.4792059"><time>2025-05-18T08:02:10.303</time></trkpt><trkpt lat="55.6243700" lon="49.4791857"><time>2025-05-18T08:02:15.300</time></trkpt><trkpt lat="55.6243180" lon="49.4791589"><time>2025-05-18T08:02:20.297</time></trkpt><trkpt lat="55.6242726" lon="49.4791450"><time>2025-05-18T08:02:24.297</time></trkpt><trkpt lat="55.6242260" lon="49.4791389"><time>2025-05-18T08:02:28.297</time></trkpt><trkpt lat="55.6241783" lon="49.4791182"><time>2025-05-18T08:02:32.293</time></trkpt><trkpt lat="55.6241222" lon="49.4790998"><time>2025-05-18T08:02:37.300</time></trkpt><trkpt lat="55.6240716" lon="49.4790837"><time>2025-05-18T08:02:41.293</time></trkpt><trkpt lat="55.6240248" lon="49.4790530"><time>2025-05-18T08:02:45.297</time></trkpt><trkpt lat="55.6239720" lon="49.4790465"><time>2025-05-18T08:02:49.297</time></trkpt><trkpt lat="55.6239239" lon="49.4790308"><time>2025-05-18T08:02:53.300</time></trkpt><trkpt lat="55.6238788" lon="49.4790164"><time>2025-05-18T08:02:57.293</time></trkpt><trkpt lat="55.6238337" lon="49.4790030"><time>2025-05-18T08:03:01.297</time></trkpt><trkpt lat="55.6237868" lon="49.4789959"><time>2025-05-18T08:03:05.293</time></trkpt><trkpt lat="55.6237351" lon="49.4789887"><time>2025-05-18T08:03:09.293</time></trkpt><trkpt lat="55.6236858" lon="49.4789864"><time>2025-05-18T08:03:13.300</time></trkpt><trkpt lat="55.6236365" lon="49.4789616"><time>2025-05-18T08:03:17.300</time></trkpt><trkpt lat="55.6235887" lon="49.4789351"><time>2025-05-18T08:03:21.297</time></trkpt><trkpt lat="55.6235426" lon="49.4789100"><time>2025-05-18T08:03:25.297</time></trkpt><trkpt lat="55.6234930" lon="49.4789087"><time>2025-05-18T08:03:29.297</time></trkpt><trkpt lat="55.6234497" lon="49.4788866"><time>2025-05-18T08:03:33.297</time></trkpt><trkpt lat="55.6234034" lon="49.4788539"><time>2025-05-18T08:03:38.293</time></trkpt><trkpt lat="55.6233501" lon="49.4788555"><time>2025-05-18T08:03:42.297</time></trkpt><trkpt lat="55.6233061" lon="49.4788210"><time>2025-05-18T08:03:46.293</time></trkpt><trkpt lat="55.6232472" lon="49.4788079"><time>2025-05-18T08:03:50.293</time></trkpt><trkpt lat="55.6232014" lon="49.4787950"><time>2025-05-18T08:03:53.297</time></trkpt><trkpt lat="55.6231552" lon="49.4788039"><time>2025-05-18T08:03:56.300</time></trkpt><trkpt lat="55.6230982" lon="49.4787808"><time>2025-05-18T08:04:01.297</time></trkpt><trkpt lat="55.6230475" lon="49.4787408"><time>2025-05-18T08:04:06.297</time></trkpt><trkpt lat="55.6229906" lon="49.4787213"><time>2025-05-18T08:04:11.300</time></trkpt><trkpt lat="55.6229364" lon="49.4787013"><time>2025-05-18T08:04:16.297</time></trkpt><trkpt lat="55.6228832" lon="49.4786958"><time>2025-05-18T08:04:20.293</time></trkpt><trkpt lat="55.6228323" lon="49.4786824"><time>2025-05-18T08:04:24.293</time></trkpt><trkpt lat="55.6227823" lon="49.4786548"><time>2025-05-18T08:04:28.297</time></trkpt><trkpt lat="55.6227317" lon="49.4786323"><time>2025-05-18T08:04:32.297</time></trkpt><trkpt lat="55.6226858" lon="49.4786091"><time>2025-05-18T08:04:36.293</time></trkpt><trkpt lat="55.6226367" lon="49.4785926"><time>2025-05-18T08:04:40.297</time></trkpt><trkpt lat="55.6225875" lon="49.4785700"><time>2025-05-18T08:04:44.297</time></trkpt><trkpt lat="55.6225388" lon="49.4785527"><time>2025-05-18T08:04:48.297</time></trkpt><trkpt lat="55.6224892" lon="49.4785246"><time>2025-05-18T08:04:52.293</time></trkpt><trkpt lat="55.6224461" lon="49.4784841"><time>2025-05-18T08:04:56.297</time></trkpt><trkpt lat="55.6223959" lon="49.4784712"><time>2025-05-18T08:05:00.293</time></trkpt><trkpt lat="55.6223438" lon="49.4784539"><time>2025-05-18T08:05:04.297</time></trkpt><trkpt lat="55.6222910" lon="49.4784243"><time>2025-05-18T08:05:08.293</time></trkpt><trkpt lat="55.6222412" lon="49.4783947"><time>2025-05-18T08:05:12.300</time></trkpt><trkpt lat="55.6221876" lon="49.4783849"><time>2025-05-18T08:05:16.293</time></trkpt><trkpt lat="55.6221405" lon="49.4783337"><time>2025-05-18T08:05:20.297</time></trkpt><trkpt lat="55.6220996" lon="49.4782966"><time>2025-05-18T08:05:23.293</time></trkpt><trkpt lat="55.6220505" lon="49.4782713"><time>2025-05-18T08:05:27.293</time></trkpt><trkpt lat="55.6219936" lon="49.4782725"><time>2025-05-18T08:05:31.297</time></trkpt><trkpt lat="55.6219444" lon="49.4782476"><time>2025-05-18T08:05:35.293</time></trkpt><trkpt lat="55.6218987" lon="49.4782258"><time>2025-05-18T08:05:38.297</time></trkpt><trkpt lat="55.6218471" lon="49.4782070"><time>2025-05-18T08:05:42.293</time></trkpt><trkpt lat="55.6217950" lon="49.4781908"><time>2025-05-18T08:05:46.297</time></trkpt><trkpt lat="55.6217464" lon="49.4781592"><time>2025-05-18T08:05:50.293</time></trkpt><trkpt lat="55.6216990" lon="49.4781480"><time>2025-05-18T08:05:54.293</time></trkpt><trkpt lat="55.6216495" lon="49.4781290"><time>2025-05-18T08:05:58.297</time></trkpt><trkpt lat="55.6216223" lon="49.4782213"><time>2025-05-18T08:06:00.297</time></trkpt><trkpt lat="55.6215803" lon="49.4781899"><time>2025-05-18T08:06:04.293</time></trkpt><trkpt lat="55.6215406" lon="49.4781439"><time>2025-05-18T08:06:08.297</time></trkpt><trkpt lat="55.6214874" lon="49.4781267"><time>2025-05-18T08:06:12.300</time></trkpt><trkpt lat="55.6214351" lon="49.4781262"><time>2025-05-18T08:06:16.293</time></trkpt><trkpt lat="55.6213869" lon="49.4780875"><time>2025-05-18T08:06:20.293</time></trkpt><trkpt lat="55.6213429" lon="49.4780690"><time>2025-05-18T08:06:24.297</time></trkpt><trkpt lat="55.6213040" lon="49.4780185"><time>2025-05-18T08:06:28.297</time></trkpt><trkpt lat="55.6212596" lon="49.4779728"><time>2025-05-18T08:06:32.297</time></trkpt><trkpt lat="55.6212144" lon="49.4779500"><time>2025-05-18T08:06:36.297</time></trkpt><trkpt lat="55.6211615" lon="49.4779173"><time>2025-05-18T08:06:41.297</time></trkpt><trkpt lat="55.6211155" lon="49.4779031"><time>2025-05-18T08:06:45.297</time></trkpt><trkpt lat="55.6210692" lon="49.4778789"><time>2025-05-18T08:06:49.290</time></trkpt><trkpt lat="55.6210103" lon="49.4778656"><time>2025-05-18T08:06:53.297</time></trkpt><trkpt lat="55.6209647" lon="49.4778478"><time>2025-05-18T08:06:57.297</time></trkpt><trkpt lat="55.6209169" lon="49.4778221"><time>2025-05-18T08:07:01.297</time></trkpt><trkpt lat="55.6208643" lon="49.4778057"><time>2025-05-18T08:07:05.297</time></trkpt><trkpt lat="55.6208213" lon="49.4777733"><time>2025-05-18T08:07:09.297</time></trkpt><trkpt lat="55.6207709" lon="49.4777571"><time>2025-05-18T08:07:13.300</time></trkpt><trkpt lat="55.6207234" lon="49.4777252"><time>2025-05-18T08:07:17.300</time></trkpt><trkpt lat="55.6206781" lon="49.4776897"><time>2025-05-18T08:07:21.297</time></trkpt><trkpt lat="55.6206286" lon="49.4776613"><time>2025-05-18T08:07:25.297</time></trkpt><trkpt lat="55.6205836" lon="49.4776349"><time>2025-05-18T08:07:29.293</time></trkpt><trkpt lat="55.6205396" lon="49.4776042"><time>2025-05-18T08:07:33.297</time></trkpt><trkpt lat="55.6204953" lon="49.4775648"><time>2025-05-18T08:07:37.297</time></trkpt><trkpt lat="55.6204433" lon="49.4775374"><time>2025-05-18T08:07:41.293</time></trkpt><trkpt lat="55.6203989" lon="49.4775021"><time>2025-05-18T08:07:45.297</time></trkpt><trkpt lat="55.6203530" lon="49.4774884"><time>2025-05-18T08:07:49.297</time></trkpt><trkpt lat="55.6203083" lon="49.4774645"><time>2025-05-18T08:07:53.297</time></trkpt><trkpt lat="55.6202678" lon="49.4774253"><time>2025-05-18T08:07:57.290</time></trkpt><trkpt lat="55.6202180" lon="49.4773939"><time>2025-05-18T08:08:01.297</time></trkpt><trkpt lat="55.6201715" lon="49.4773425"><time>2025-05-18T08:08:06.300</time></trkpt><trkpt lat="55.6201253" lon="49.4773093"><time>2025-05-18T08:08:10.293</time></trkpt><trkpt lat="55.6200790" lon="49.4773155"><time>2025-05-18T08:08:13.297</time></trkpt><trkpt lat="55.6200358" lon="49.4772707"><time>2025-05-18T08:08:17.297</time></trkpt><trkpt lat="55.6199885" lon="49.4772069"><time>2025-05-18T08:08:21.300</time></trkpt><trkpt lat="55.6199601" lon="49.4771322"><time>2025-05-18T08:08:26.293</time></trkpt><trkpt lat="55.6199274" lon="49.4770642"><time>2025-05-18T08:08:30.297</time></trkpt><trkpt lat="55.6198901" lon="49.4770103"><time>2025-05-18T08:08:34.297</time></trkpt><trkpt lat="55.6198311" lon="49.4770360"><time>2025-05-18T08:08:38.297</time></trkpt><trkpt lat="55.6197891" lon="49.4771012"><time>2025-05-18T08:08:41.300</time></trkpt><trkpt lat="55.6197588" lon="49.4771712"><time>2025-05-18T08:08:44.297</time></trkpt><trkpt lat="55.6197273" lon="49.4772428"><time>2025-05-18T08:08:47.297</time></trkpt><trkpt lat="55.6196970" lon="49.4773052"><time>2025-05-18T08:08:50.293</time></trkpt><trkpt lat="55.6196683" lon="49.4773672"><time>2025-05-18T08:08:53.297</time></trkpt><trkpt lat="55.6196216" lon="49.4774039"><time>2025-05-18T08:08:57.293</time></trkpt><trkpt lat="55.6195856" lon="49.4774533"><time>2025-05-18T08:09:01.293</time></trkpt><trkpt lat="55.6195508" lon="49.4775202"><time>2025-05-18T08:09:05.293</time></trkpt><trkpt lat="55.6195183" lon="49.4775850"><time>2025-05-18T08:09:09.293</time></trkpt><trkpt lat="55.6194800" lon="49.4776542"><time>2025-05-18T08:09:13.293</time></trkpt><trkpt lat="55.6194336" lon="49.4776903"><time>2025-05-18T08:09:17.297</time></trkpt><trkpt lat="55.6193838" lon="49.4777412"><time>2025-05-18T08:09:21.297</time></trkpt><trkpt lat="55.6193462" lon="49.4777972"><time>2025-05-18T08:09:25.297</time></trkpt><trkpt lat="55.6193044" lon="49.4778602"><time>2025-05-18T08:09:29.293</time></trkpt><trkpt lat="55.6192612" lon="49.4779247"><time>2025-05-18T08:09:33.307</time></trkpt><trkpt lat="55.6192236" lon="49.4779952"><time>2025-05-18T08:09:37.293</time></trkpt><trkpt lat="55.6191865" lon="49.4780621"><time>2025-05-18T08:09:41.297</time></trkpt><trkpt lat="55.6191566" lon="49.4781442"><time>2025-05-18T08:09:45.297</time></trkpt><trkpt lat="55.6191157" lon="49.4782151"><time>2025-05-18T08:09:49.297</time></trkpt><trkpt lat="55.6190766" lon="49.4782888"><time>2025-05-18T08:09:53.297</time></trkpt><trkpt lat="55.6190360" lon="49.4783406"><time>2025-05-18T08:09:57.297</time></trkpt><trkpt lat="55.6189987" lon="49.4784022"><time>2025-05-18T08:10:01.297</time></trkpt><trkpt lat="55.6189646" lon="49.4784764"><time>2025-05-18T08:10:05.293</time></trkpt><trkpt lat="55.6189178" lon="49.4785287"><time>2025-05-18T08:10:09.293</time></trkpt><trkpt lat="55.6188803" lon="49.4785953"><time>2025-05-18T08:10:13.297</time></trkpt><trkpt lat="55.6188473" lon="49.4786680"><time>2025-05-18T08:10:17.297</time></trkpt><trkpt lat="55.6188029" lon="49.4787224"><time>2025-05-18T08:10:21.297</time></trkpt><trkpt lat="55.6187681" lon="49.4787855"><time>2025-05-18T08:10:25.297</time></trkpt><trkpt lat="55.6187265" lon="49.4788445"><time>2025-05-18T08:10:29.297</time></trkpt><trkpt lat="55.6186887" lon="49.4789050"><time>2025-05-18T08:10:33.297</time></trkpt><trkpt lat="55.6186490" lon="49.4789721"><time>2025-05-18T08:10:37.293</time></trkpt><trkpt lat="55.6186044" lon="49.4790182"><time>2025-05-18T08:10:41.293</time></trkpt><trkpt lat="55.6185710" lon="49.4790717"><time>2025-05-18T08:10:44.293</time></trkpt><trkpt lat="55.6185187" lon="49.4791169"><time>2025-05-18T08:10:48.293</time></trkpt><trkpt lat="55.6184821" lon="49.4791852"><time>2025-05-18T08:10:52.293</time></trkpt><trkpt lat="55.6184462" lon="49.4792553"><time>2025-05-18T08:10:56.297</time></trkpt><trkpt lat="55.6184006" lon="49.4793210"><time>2025-05-18T08:11:01.293</time></trkpt><trkpt lat="55.6183521" lon="49.4793328"><time>2025-05-18T08:11:05.293</time></trkpt><trkpt lat="55.6183202" lon="49.4792575"><time>2025-05-18T08:11:10.300</time></trkpt><trkpt lat="55.6183007" lon="49.4791852"><time>2025-05-18T08:11:14.297</time></trkpt><trkpt lat="55.6182922" lon="49.4790965"><time>2025-05-18T08:11:18.297</time></trkpt><trkpt lat="55.6182828" lon="49.4790143"><time>2025-05-18T08:11:22.297</time></trkpt><trkpt lat="55.6182666" lon="49.4789203"><time>2025-05-18T08:11:27.297</time></trkpt><trkpt lat="55.6182545" lon="49.4788329"><time>2025-05-18T08:11:32.290</time></trkpt><trkpt lat="55.6182478" lon="49.4787379"><time>2025-05-18T08:11:37.297</time></trkpt><trkpt lat="55.6182393" lon="49.4786492"><time>2025-05-18T08:11:42.297</time></trkpt><trkpt lat="55.6182437" lon="49.4785633"><time>2025-05-18T08:11:47.297</time></trkpt><trkpt lat="55.6182197" lon="49.4784753"><time>2025-05-18T08:11:52.297</time></trkpt><trkpt lat="55.6182044" lon="49.4783827"><time>2025-05-18T08:11:57.297</time></trkpt><trkpt lat="55.6181808" lon="49.4782935"><time>2025-05-18T08:12:02.297</time></trkpt><trkpt lat="55.6181523" lon="49.4782256"><time>2025-05-18T08:12:06.293</time></trkpt><trkpt lat="55.6181201" lon="49.4781478"><time>2025-05-18T08:12:11.297</time></trkpt><trkpt lat="55.6180856" lon="49.4780901"><time>2025-05-18T08:12:15.297</time></trkpt><trkpt lat="55.6180429" lon="49.4780385"><time>2025-05-18T08:12:19.297</time></trkpt><trkpt lat="55.6179973" lon="49.4779854"><time>2025-05-18T08:12:24.293</time></trkpt><trkpt lat="55.6179561" lon="49.4779474"><time>2025-05-18T08:12:28.293</time></trkpt><trkpt lat="55.6179091" lon="49.4779162"><time>2025-05-18T08:12:32.293</time></trkpt><trkpt lat="55.6178633" lon="49.4778852"><time>2025-05-18T08:12:36.293</time></trkpt><trkpt lat="55.6178059" lon="49.4778717"><time>2025-05-18T08:12:40.297</time></trkpt><trkpt lat="55.6177605" lon="49.4778511"><time>2025-05-18T08:12:44.290</time></trkpt><trkpt lat="55.6177153" lon="49.4778282"><time>2025-05-18T08:12:48.297</time></trkpt><trkpt lat="55.6176662" lon="49.4777981"><time>2025-05-18T08:12:52.293</time></trkpt><trkpt lat="55.6176203" lon="49.4777789"><time>2025-05-18T08:12:56.297</time></trkpt><trkpt lat="55.6175687" lon="49.4777599"><time>2025-05-18T08:13:00.297</time></trkpt><trkpt lat="55.6175315" lon="49.4777021"><time>2025-05-18T08:13:04.293</time></trkpt><trkpt lat="55.6175027" lon="49.4776346"><time>2025-05-18T08:13:08.293</time></trkpt><trkpt lat="55.6174760" lon="49.4775658"><time>2025-05-18T08:13:12.297</time></trkpt><trkpt lat="55.6174416" lon="49.4775099"><time>2025-05-18T08:13:16.297</time></trkpt><trkpt lat="55.6173873" lon="49.4775387"><time>2025-05-18T08:13:20.297</time></trkpt><trkpt lat="55.6173703" lon="49.4776258"><time>2025-05-18T08:13:22.297</time></trkpt><trkpt lat="55.6173658" lon="49.4777369"><time>2025-05-18T08:13:25.297</time></trkpt><trkpt lat="55.6173387" lon="49.4778084"><time>2025-05-18T08:13:27.293</time></trkpt><trkpt lat="55.6173067" lon="49.4778731"><time>2025-05-18T08:13:29.297</time></trkpt><trkpt lat="55.6172795" lon="49.4779572"><time>2025-05-18T08:13:31.297</time></trkpt><trkpt lat="55.6172526" lon="49.4780587"><time>2025-05-18T08:13:33.297</time></trkpt><trkpt lat="55.6172237" lon="49.4781442"><time>2025-05-18T08:13:35.293</time></trkpt><trkpt lat="55.6172025" lon="49.4782202"><time>2025-05-18T08:13:37.290</time></trkpt><trkpt lat="55.6171479" lon="49.4782876"><time>2025-05-18T08:13:40.293</time></trkpt><trkpt lat="55.6171081" lon="49.4783766"><time>2025-05-18T08:13:43.293</time></trkpt><trkpt lat="55.6170636" lon="49.4784262"><time>2025-05-18T08:13:46.297</time></trkpt><trkpt lat="55.6170107" lon="49.4784886"><time>2025-05-18T08:13:49.297</time></trkpt><trkpt lat="55.6169610" lon="49.4785262"><time>2025-05-18T08:13:51.297</time></trkpt><trkpt lat="55.6168937" lon="49.4785676"><time>2025-05-18T08:13:54.297</time></trkpt><trkpt lat="55.6168474" lon="49.4786088"><time>2025-05-18T08:13:57.293</time></trkpt><trkpt lat="55.6168608" lon="49.4787008"><time>2025-05-18T08:14:03.290</time></trkpt><trkpt lat="55.6168912" lon="49.4787716"><time>2025-05-18T08:14:07.293</time></trkpt><trkpt lat="55.6168903" lon="49.4788588"><time>2025-05-18T08:14:11.293</time></trkpt><trkpt lat="55.6168714" lon="49.4789391"><time>2025-05-18T08:14:13.297</time></trkpt><trkpt lat="55.6168582" lon="49.4790251"><time>2025-05-18T08:14:15.293</time></trkpt><trkpt lat="55.6168676" lon="49.4790642"><time>2025-05-18T08:14:17.263</time></trkpt><trkpt lat="55.6168806" lon="49.4791098"><time>2025-05-18T08:14:18.293</time></trkpt><trkpt lat="55.6169031" lon="49.4790394"><time>2025-05-18T08:14:30.307</time></trkpt><trkpt lat="55.6169201" lon="49.4789458"><time>2025-05-18T08:14:35.327</time></trkpt><trkpt lat="55.6169400" lon="49.4788666"><time>2025-05-18T08:14:40.317</time></trkpt><trkpt lat="55.6169627" lon="49.4787954"><time>2025-05-18T08:14:46.317</time></trkpt><trkpt lat="55.6170038" lon="49.4787438"><time>2025-05-18T08:14:51.307</time></trkpt><trkpt lat="55.6170112" lon="49.4786651"><time>2025-05-18T08:14:55.320</time></trkpt><trkpt lat="55.6170427" lon="49.4786018"><time>2025-05-18T08:15:04.307</time></trkpt><trkpt lat="55.6170656" lon="49.4785329"><time>2025-05-18T08:15:08.307</time></trkpt><trkpt lat="55.6170863" lon="49.4784568"><time>2025-05-18T08:15:12.307</time></trkpt><trkpt lat="55.6170835" lon="49.4783702"><time>2025-05-18T08:15:16.320</time></trkpt><trkpt lat="55.6170356" lon="49.4783321"><time>2025-05-18T08:15:21.317</time></trkpt><trkpt lat="55.6170041" lon="49.4782548"><time>2025-05-18T08:15:25.313</time></trkpt><trkpt lat="55.6169607" lon="49.4781972"><time>2025-05-18T08:15:29.323</time></trkpt><trkpt lat="55.6169189" lon="49.4781399"><time>2025-05-18T08:15:33.317</time></trkpt><trkpt lat="55.6168649" lon="49.4781111"><time>2025-05-18T08:15:38.317</time></trkpt><trkpt lat="55.6168184" lon="49.4780917"><time>2025-05-18T08:15:42.313</time></trkpt><trkpt lat="55.6167699" lon="49.4780898"><time>2025-05-18T08:15:46.323</time></trkpt><trkpt lat="55.6167241" lon="49.4780996"><time>2025-05-18T08:15:51.313</time></trkpt><trkpt lat="55.6166764" lon="49.4781158"><time>2025-05-18T08:15:56.313</time></trkpt><trkpt lat="55.6166241" lon="49.4781478"><time>2025-05-18T08:16:01.300</time></trkpt><trkpt lat="55.6165830" lon="49.4781865"><time>2025-05-18T08:16:05.313</time></trkpt><trkpt lat="55.6099610" lon="49.4678484"><time>2025-05-18T08:36:44.300</time></trkpt><trkpt lat="55.6096958" lon="49.4678841"><time>2025-05-18T08:36:45.297</time></trkpt><trkpt lat="55.6097722" lon="49.4679592"><time>2025-05-18T08:36:46.297</time></trkpt><trkpt lat="55.6097202" lon="49.4679873"><time>2025-05-18T08:36:47.297</time></trkpt><trkpt lat="55.6096845" lon="49.4679266"><time>2025-05-18T08:36:55.297</time></trkpt><trkpt lat="55.6096769" lon="49.4678473"><time>2025-05-18T08:37:12.300</time></trkpt><trkpt lat="55.6097049" lon="49.4677099"><time>2025-05-18T08:37:14.293</time></trkpt><trkpt lat="55.6097362" lon="49.4676448"><time>2025-05-18T08:37:16.293</time></trkpt><trkpt lat="55.6097013" lon="49.4675811"><time>2025-05-18T08:37:21.290</time></trkpt><trkpt lat="55.6096950" lon="49.4674664"><time>2025-05-18T08:37:24.293</time></trkpt><trkpt lat="55.6096884" lon="49.4673800"><time>2025-05-18T08:37:28.297</time></trkpt><trkpt lat="55.6096648" lon="49.4673090"><time>2025-05-18T08:37:32.293</time></trkpt><trkpt lat="55.6096414" lon="49.4672383"><time>2025-05-18T08:37:34.290</time></trkpt><trkpt lat="55.6096003" lon="49.4671755"><time>2025-05-18T08:37:37.297</time></trkpt><trkpt lat="55.6095595" lon="49.4671381"><time>2025-05-18T08:37:42.297</time></trkpt><trkpt lat="55.6095636" lon="49.4671213"><time>2025-05-18T08:37:47.873</time></trkpt><trkpt lat="55.6095997" lon="49.4670812"><time>2025-05-18T08:37:52.300</time></trkpt><trkpt lat="55.6096083" lon="49.4671725"><time>2025-05-18T08:38:15.300</time></trkpt><trkpt lat="55.6096278" lon="49.4672581"><time>2025-05-18T08:38:20.303</time></trkpt><trkpt lat="55.6096360" lon="49.4673440"><time>2025-05-18T08:38:27.290</time></trkpt><trkpt lat="55.6096184" lon="49.4674312"><time>2025-05-18T08:38:31.300</time></trkpt><trkpt lat="55.6096352" lon="49.4675232"><time>2025-05-18T08:38:34.300</time></trkpt><trkpt lat="55.6096508" lon="49.4676154"><time>2025-05-18T08:38:38.303</time></trkpt><trkpt lat="55.6096454" lon="49.4676971"><time>2025-05-18T08:38:44.373</time></trkpt><trkpt lat="55.6096605" lon="49.4677810"><time>2025-05-18T08:38:54.340</time></trkpt><trkpt lat="55.6096840" lon="49.4678504"><time>2025-05-18T08:38:58.313</time></trkpt><trkpt lat="55.6097143" lon="49.4679294"><time>2025-05-18T08:39:02.300</time></trkpt><trkpt lat="55.6097381" lon="49.4680066"><time>2025-05-18T08:39:12.293</time></trkpt><trkpt lat="55.6097282" lon="49.4680851"><time>2025-05-18T08:39:18.293</time></trkpt><trkpt lat="55.6096979" lon="49.4681490"><time>2025-05-18T08:39:22.297</time></trkpt><trkpt lat="55.6097217" lon="49.4682219"><time>2025-05-18T08:39:28.287</time></trkpt><trkpt lat="55.6097570" lon="49.4682815"><time>2025-05-18T08:39:32.293</time></trkpt><trkpt lat="55.6097987" lon="49.4683243"><time>2025-05-18T08:39:36.290</time></trkpt><trkpt lat="55.6098178" lon="49.4683971"><time>2025-05-18T08:39:46.290</time></trkpt><trkpt lat="55.6098367" lon="49.4684716"><time>2025-05-18T08:39:52.297</time></trkpt><trkpt lat="55.6098516" lon="49.4685578"><time>2025-05-18T08:39:59.297</time></trkpt><trkpt lat="55.6098512" lon="49.4686502"><time>2025-05-18T08:40:05.350</time></trkpt><trkpt lat="55.6098824" lon="49.4687171"><time>2025-05-18T08:40:14.307</time></trkpt><trkpt lat="55.6098972" lon="49.4687998"><time>2025-05-18T08:40:19.340</time></trkpt><trkpt lat="55.6099218" lon="49.4688680"><time>2025-05-18T08:40:24.310</time></trkpt><trkpt lat="55.6099440" lon="49.4689414"><time>2025-05-18T08:40:29.323</time></trkpt><trkpt lat="55.6099688" lon="49.4690174"><time>2025-05-18T08:40:34.330</time></trkpt><trkpt lat="55.6099984" lon="49.4690950"><time>2025-05-18T08:40:40.300</time></trkpt><trkpt lat="55.6100292" lon="49.4691795"><time>2025-05-18T08:40:44.313</time></trkpt><trkpt lat="55.6100501" lon="49.4692219"><time>2025-05-18T08:54:57.157</time></trkpt><trkpt lat="55.6099172" lon="49.4799997"><time>2025-05-18T08:56:26.313</time></trkpt><trkpt lat="55.6098594" lon="49.4799884"><time>2025-05-18T08:56:28.310</time></trkpt><trkpt lat="55.6098072" lon="49.4799217"><time>2025-05-18T08:57:10.297</time></trkpt><trkpt lat="55.6097566" lon="49.4799410"><time>2025-05-18T08:57:12.307</time></trkpt><trkpt lat="55.6097076" lon="49.4800002"><time>2025-05-18T08:57:15.303</time></trkpt><trkpt lat="55.6096535" lon="49.4800073"><time>2025-05-18T08:57:19.303</time></trkpt><trkpt lat="55.5972283" lon="49.4809055"><time>2025-05-18T09:25:16.293</time></trkpt><trkpt lat="55.5972786" lon="49.4808782"><time>2025-05-18T09:25:17.283</time></trkpt><trkpt lat="55.5971567" lon="49.4808373"><time>2025-05-18T09:25:18.287</time></trkpt><trkpt lat="55.5971124" lon="49.4808664"><time>2025-05-18T09:25:22.287</time></trkpt><trkpt lat="55.5970352" lon="49.4808135"><time>2025-05-18T09:25:48.287</time></trkpt><trkpt lat="55.5968361" lon="49.4805592"><time>2025-05-18T09:25:49.287</time></trkpt><trkpt lat="55.5968873" lon="49.4806689"><time>2025-05-18T09:25:51.287</time></trkpt><trkpt lat="55.5968241" lon="49.4806431"><time>2025-05-18T09:25:52.290</time></trkpt><trkpt lat="55.5967781" lon="49.4806283"><time>2025-05-18T09:25:58.290</time></trkpt><trkpt lat="55.5967236" lon="49.4806187"><time>2025-05-18T09:26:06.290</time></trkpt><trkpt lat="55.5966745" lon="49.4806079"><time>2025-05-18T09:26:10.287</time></trkpt><trkpt lat="55.5966083" lon="49.4806211"><time>2025-05-18T09:26:14.290</time></trkpt><trkpt lat="55.5965500" lon="49.4806241"><time>2025-05-18T09:26:17.287</time></trkpt><trkpt lat="55.5965056" lon="49.4806064"><time>2025-05-18T09:26:22.287</time></trkpt><trkpt lat="55.5964955" lon="49.4805118"><time>2025-05-18T09:26:27.287</time></trkpt><trkpt lat="55.5964821" lon="49.4804179"><time>2025-05-18T09:26:32.287</time></trkpt><trkpt lat="55.5964553" lon="49.4803416"><time>2025-05-18T09:26:36.290</time></trkpt><trkpt lat="55.5964120" lon="49.4803037"><time>2025-05-18T09:26:42.290</time></trkpt><trkpt lat="55.5964162" lon="49.4802172"><time>2025-05-18T09:26:47.287</time></trkpt><trkpt lat="55.5963752" lon="49.4801750"><time>2025-05-18T09:26:50.287</time></trkpt><trkpt lat="55.5963280" lon="49.4801609"><time>2025-05-18T09:26:53.293</time></trkpt><trkpt lat="55.5962816" lon="49.4801835"><time>2025-05-18T09:26:57.287</time></trkpt><trkpt lat="55.5962512" lon="49.4801046"><time>2025-05-18T09:27:02.293</time></trkpt><trkpt lat="55.5962181" lon="49.4800314"><time>2025-05-18T09:27:06.287</time></trkpt><trkpt lat="55.5961936" lon="49.4799546"><time>2025-05-18T09:27:12.303</time></trkpt><trkpt lat="55.5961579" lon="49.4798952"><time>2025-05-18T09:27:17.287</time></trkpt><trkpt lat="55.5961095" lon="49.4798566"><time>2025-05-18T09:27:21.287</time></trkpt><trkpt lat="55.5960688" lon="49.4798174"><time>2025-05-18T09:27:27.287</time></trkpt><trkpt lat="55.5960202" lon="49.4798216"><time>2025-05-18T09:27:32.287</time></trkpt><trkpt lat="55.5959864" lon="49.4797615"><time>2025-05-18T09:27:36.293</time></trkpt><trkpt lat="55.5959373" lon="49.4797734"><time>2025-05-18T09:27:40.290</time></trkpt><trkpt lat="55.5959514" lon="49.4798510"><time>2025-05-18T09:27:52.290</time></trkpt><trkpt lat="55.5959921" lon="49.4799055"><time>2025-05-18T09:27:57.290</time></trkpt><trkpt lat="55.5959816" lon="49.4799988"><time>2025-05-18T09:28:02.290</time></trkpt><trkpt lat="55.5959775" lon="49.4800812"><time>2025-05-18T09:28:05.287</time></trkpt><trkpt lat="55.5959425" lon="49.4801373"><time>2025-05-18T09:28:09.300</time></trkpt><trkpt lat="55.5959022" lon="49.4802061"><time>2025-05-18T09:28:14.290</time></trkpt><trkpt lat="55.5958862" lon="49.4802447"><time>2025-05-18T09:28:24.520</time></trkpt><trkpt lat="55.5958630" lon="49.4802549"><time>2025-05-18T09:28:55.297</time></trkpt><trkpt lat="55.5958985" lon="49.4803383"><time>2025-05-18T09:29:03.303</time></trkpt><trkpt lat="55.5959241" lon="49.4804175"><time>2025-05-18T09:29:07.300</time></trkpt><trkpt lat="55.5959396" lon="49.4804931"><time>2025-05-18T09:29:18.290</time></trkpt><trkpt lat="55.5959540" lon="49.4805689"><time>2025-05-18T09:29:28.293</time></trkpt><trkpt lat="55.5959752" lon="49.4806506"><time>2025-05-18T09:29:34.300</time></trkpt><trkpt lat="55.5959394" lon="49.4807177"><time>2025-05-18T09:29:43.307</time></trkpt><trkpt lat="55.5959159" lon="49.4807901"><time>2025-05-18T09:29:51.317</time></trkpt><trkpt lat="55.6215708" lon="49.5050652"><time>2025-05-18T10:44:20.273</time></trkpt><trkpt lat="55.6215891" lon="49.5049487"><time>2025-05-18T10:44:24.277</time></trkpt><trkpt lat="55.6216011" lon="49.5048509"><time>2025-05-18T10:44:26.277</time></trkpt><trkpt lat="55.6216245" lon="49.5047638"><time>2025-05-18T10:44:28.280</time></trkpt><trkpt lat="55.6216627" lon="49.5046898"><time>2025-05-18T10:44:30.277</time></trkpt><trkpt lat="55.6217070" lon="49.5046213"><time>2025-05-18T10:44:32.283</time></trkpt><trkpt lat="55.6217492" lon="49.5045643"><time>2025-05-18T10:44:34.277</time></trkpt><trkpt lat="55.6217952" lon="49.5045184"><time>2025-05-18T10:44:36.277</time></trkpt><trkpt lat="55.6218438" lon="49.5044936"><time>2025-05-18T10:44:38.277</time></trkpt><trkpt lat="55.6218877" lon="49.5044754"><time>2025-05-18T10:44:42.280</time></trkpt><trkpt lat="55.6218877" lon="49.5044754"><time>2025-05-18T10:44:42.333</time></trkpt><trkpt lat="55.6218750" lon="49.5043851"><time>2025-05-18T10:44:48.297</time></trkpt><trkpt lat="55.6218889" lon="49.5042854"><time>2025-05-18T10:44:52.287</time></trkpt><trkpt lat="55.6219067" lon="49.5042121"><time>2025-05-18T10:44:55.287</time></trkpt><trkpt lat="55.6219332" lon="49.5041360"><time>2025-05-18T10:44:59.283</time></trkpt><trkpt lat="55.6219489" lon="49.5040486"><time>2025-05-18T10:45:03.283</time></trkpt><trkpt lat="55.6219650" lon="49.5039490"><time>2025-05-18T10:45:07.280</time></trkpt><trkpt lat="55.6219990" lon="49.5038882"><time>2025-05-18T10:45:10.283</time></trkpt><trkpt lat="55.6220449" lon="49.5038352"><time>2025-05-18T10:45:13.273</time></trkpt><trkpt lat="55.6221027" lon="49.5037838"><time>2025-05-18T10:45:16.283</time></trkpt><trkpt lat="55.6221565" lon="49.5037429"><time>2025-05-18T10:45:18.283</time></trkpt><trkpt lat="55.6222127" lon="49.5037086"><time>2025-05-18T10:45:20.283</time></trkpt><trkpt lat="55.6222645" lon="49.5036558"><time>2025-05-18T10:45:22.283</time></trkpt><trkpt lat="55.6223068" lon="49.5036079"><time>2025-05-18T10:45:24.283</time></trkpt><trkpt lat="55.6223487" lon="49.5035604"><time>2025-05-18T10:45:26.283</time></trkpt><trkpt lat="55.6223893" lon="49.5035108"><time>2025-05-18T10:45:28.277</time></trkpt><trkpt lat="55.6224348" lon="49.5034600"><time>2025-05-18T10:45:30.283</time></trkpt><trkpt lat="55.6224807" lon="49.5034115"><time>2025-05-18T10:45:32.283</time></trkpt><trkpt lat="55.6225226" lon="49.5033706"><time>2025-05-18T10:45:34.283</time></trkpt><trkpt lat="55.6225774" lon="49.5033358"><time>2025-05-18T10:45:36.287</time></trkpt><trkpt lat="55.6226324" lon="49.5032700"><time>2025-05-18T10:45:39.287</time></trkpt><trkpt lat="55.6226827" lon="49.5032157"><time>2025-05-18T10:45:42.287</time></trkpt><trkpt lat="55.6227404" lon="49.5031637"><time>2025-05-18T10:45:45.287</time></trkpt><trkpt lat="55.6227925" lon="49.5031246"><time>2025-05-18T10:45:47.287</time></trkpt><trkpt lat="55.6228461" lon="49.5030926"><time>2025-05-18T10:45:49.287</time></trkpt><trkpt lat="55.6229087" lon="49.5030427"><time>2025-05-18T10:45:52.287</time></trkpt><trkpt lat="55.6229626" lon="49.5030043"><time>2025-05-18T10:45:55.287</time></trkpt><trkpt lat="55.6229986" lon="49.5029288"><time>2025-05-18T10:45:58.287</time></trkpt><trkpt lat="55.6230270" lon="49.5028325"><time>2025-05-18T10:46:01.287</time></trkpt><trkpt lat="55.6230548" lon="49.5027430"><time>2025-05-18T10:46:04.287</time></trkpt><trkpt lat="55.6230929" lon="49.5026570"><time>2025-05-18T10:46:07.287</time></trkpt><trkpt lat="55.6231277" lon="49.5025825"><time>2025-05-18T10:46:10.287</time></trkpt><trkpt lat="55.6231565" lon="49.5025163"><time>2025-05-18T10:46:13.287</time></trkpt><trkpt lat="55.6231906" lon="49.5024569"><time>2025-05-18T10:46:15.283</time></trkpt><trkpt lat="55.6232228" lon="49.5023692"><time>2025-05-18T10:46:18.283</time></trkpt><trkpt lat="55.6232591" lon="49.5022845"><time>2025-05-18T10:46:21.287</time></trkpt><trkpt lat="55.6232933" lon="49.5021954"><time>2025-05-18T10:46:24.287</time></trkpt><trkpt lat="55.6233204" lon="49.5021208"><time>2025-05-18T10:46:26.280</time></trkpt><trkpt lat="55.6233491" lon="49.5020287"><time>2025-05-18T10:46:29.287</time></trkpt><trkpt lat="55.6233880" lon="49.5019518"><time>2025-05-18T10:46:32.287</time></trkpt><trkpt lat="55.6234251" lon="49.5018706"><time>2025-05-18T10:46:35.287</time></trkpt><trkpt lat="55.6234558" lon="49.5017891"><time>2025-05-18T10:46:38.283</time></trkpt><trkpt lat="55.6234897" lon="49.5017000"><time>2025-05-18T10:46:41.287</time></trkpt><trkpt lat="55.6235202" lon="49.5016100"><time>2025-05-18T10:46:44.287</time></trkpt><trkpt lat="55.6235481" lon="49.5015187"><time>2025-05-18T10:46:47.277</time></trkpt><trkpt lat="55.6235771" lon="49.5014378"><time>2025-05-18T10:46:50.283</time></trkpt><trkpt lat="55.6236067" lon="49.5013483"><time>2025-05-18T10:46:53.287</time></trkpt><trkpt lat="55.6236465" lon="49.5012582"><time>2025-05-18T10:46:56.287</time></trkpt><trkpt lat="55.6236738" lon="49.5011685"><time>2025-05-18T10:46:59.280</time></trkpt><trkpt lat="55.6237129" lon="49.5010825"><time>2025-05-18T10:47:02.290</time></trkpt><trkpt lat="55.6237426" lon="49.5009938"><time>2025-05-18T10:47:05.287</time></trkpt><trkpt lat="55.6237714" lon="49.5009077"><time>2025-05-18T10:47:08.287</time></trkpt><trkpt lat="55.6237912" lon="49.5008278"><time>2025-05-18T10:47:11.287</time></trkpt><trkpt lat="55.6238184" lon="49.5007470"><time>2025-05-18T10:47:14.287</time></trkpt><trkpt lat="55.6238475" lon="49.5006569"><time>2025-05-18T10:47:18.287</time></trkpt><trkpt lat="55.6238808" lon="49.5005772"><time>2025-05-18T10:47:21.287</time></trkpt><trkpt lat="55.6239143" lon="49.5005019"><time>2025-05-18T10:47:24.280</time></trkpt><trkpt lat="55.6239562" lon="49.5004365"><time>2025-05-18T10:47:29.287</time></trkpt><trkpt lat="55.6239828" lon="49.5003631"><time>2025-05-18T10:47:33.283</time></trkpt><trkpt lat="55.6240041" lon="49.5002805"><time>2025-05-18T10:47:37.290</time></trkpt><trkpt lat="55.6240354" lon="49.5001891"><time>2025-05-18T10:47:41.287</time></trkpt><trkpt lat="55.6240639" lon="49.5001166"><time>2025-05-18T10:47:45.290</time></trkpt><trkpt lat="55.6240979" lon="49.5000202"><time>2025-05-18T10:47:51.277</time></trkpt><trkpt lat="55.6241266" lon="49.4999414"><time>2025-05-18T10:47:53.277</time></trkpt><trkpt lat="55.6241606" lon="49.4998608"><time>2025-05-18T10:47:55.277</time></trkpt><trkpt lat="55.6241882" lon="49.4997920"><time>2025-05-18T10:47:57.277</time></trkpt><trkpt lat="55.6242108" lon="49.4997204"><time>2025-05-18T10:47:59.287</time></trkpt><trkpt lat="55.6242355" lon="49.4996513"><time>2025-05-18T10:48:01.287</time></trkpt><trkpt lat="55.6242621" lon="49.4995856"><time>2025-05-18T10:48:03.283</time></trkpt><trkpt lat="55.6243017" lon="49.4994985"><time>2025-05-18T10:48:06.283</time></trkpt><trkpt lat="55.6243393" lon="49.4994138"><time>2025-05-18T10:48:09.283</time></trkpt><trkpt lat="55.6243692" lon="49.4993181"><time>2025-05-18T10:48:12.287</time></trkpt><trkpt lat="55.6243943" lon="49.4992154"><time>2025-05-18T10:48:15.277</time></trkpt><trkpt lat="55.6244267" lon="49.4991174"><time>2025-05-18T10:48:18.287</time></trkpt><trkpt lat="55.6244558" lon="49.4990304"><time>2025-05-18T10:48:21.283</time></trkpt><trkpt lat="55.6244940" lon="49.4989390"><time>2025-05-18T10:48:24.283</time></trkpt><trkpt lat="55.6245209" lon="49.4988506"><time>2025-05-18T10:48:27.287</time></trkpt><trkpt lat="55.6245507" lon="49.4987770"><time>2025-05-18T10:48:30.287</time></trkpt><trkpt lat="55.6245822" lon="49.4987050"><time>2025-05-18T10:48:33.280</time></trkpt><trkpt lat="55.6245983" lon="49.4986180"><time>2025-05-18T10:48:37.287</time></trkpt><trkpt lat="55.6246105" lon="49.4985368"><time>2025-05-18T10:48:41.293</time></trkpt><trkpt lat="55.6246382" lon="49.4984548"><time>2025-05-18T10:48:45.293</time></trkpt><trkpt lat="55.6246668" lon="49.4983768"><time>2025-05-18T10:48:49.290</time></trkpt><trkpt lat="55.6247019" lon="49.4983010"><time>2025-05-18T10:48:53.283</time></trkpt><trkpt lat="55.6247329" lon="49.4982201"><time>2025-05-18T10:48:57.283</time></trkpt><trkpt lat="55.6247599" lon="49.4981528"><time>2025-05-18T10:49:00.283</time></trkpt><trkpt lat="55.6247895" lon="49.4980431"><time>2025-05-18T10:49:03.283</time></trkpt><trkpt lat="55.6248154" lon="49.4979691"><time>2025-05-18T10:49:05.290</time></trkpt><trkpt lat="55.6248412" lon="49.4978935"><time>2025-05-18T10:49:07.287</time></trkpt><trkpt lat="55.6248717" lon="49.4977916"><time>2025-05-18T10:49:10.283</time></trkpt><trkpt lat="55.6249013" lon="49.4977067"><time>2025-05-18T10:49:13.287</time></trkpt><trkpt lat="55.6249166" lon="49.4976224"><time>2025-05-18T10:49:16.287</time></trkpt><trkpt lat="55.6249429" lon="49.4975209"><time>2025-05-18T10:49:19.277</time></trkpt><trkpt lat="55.6249673" lon="49.4974526"><time>2025-05-18T10:49:21.277</time></trkpt><trkpt lat="55.6249976" lon="49.4973893"><time>2025-05-18T10:49:23.277</time></trkpt><trkpt lat="55.6250240" lon="49.4973090"><time>2025-05-18T10:49:26.283</time></trkpt><trkpt lat="55.6250591" lon="49.4972209"><time>2025-05-18T10:49:29.283</time></trkpt><trkpt lat="55.6250917" lon="49.4971239"><time>2025-05-18T10:49:32.287</time></trkpt><trkpt lat="55.6251279" lon="49.4970332"><time>2025-05-18T10:49:36.297</time></trkpt><trkpt lat="55.6251587" lon="49.4969484"><time>2025-05-18T10:49:40.297</time></trkpt><trkpt lat="55.6251796" lon="49.4968636"><time>2025-05-18T10:49:45.293</time></trkpt><trkpt lat="55.6252084" lon="49.4967908"><time>2025-05-18T10:49:50.287</time></trkpt><trkpt lat="55.6252434" lon="49.4967130"><time>2025-05-18T10:49:55.290</time></trkpt><trkpt lat="55.6252763" lon="49.4966358"><time>2025-05-18T10:49:59.290</time></trkpt><trkpt lat="55.6252945" lon="49.4965501"><time>2025-05-18T10:50:03.287</time></trkpt><trkpt lat="55.6253205" lon="49.4964739"><time>2025-05-18T10:50:08.283</time></trkpt><trkpt lat="55.6253469" lon="49.4963918"><time>2025-05-18T10:50:12.273</time></trkpt><trkpt lat="55.6253642" lon="49.4962885"><time>2025-05-18T10:50:16.283</time></trkpt><trkpt lat="55.6253840" lon="49.4961855"><time>2025-05-18T10:50:19.283</time></trkpt><trkpt lat="55.6253995" lon="49.4961006"><time>2025-05-18T10:50:21.287</time></trkpt><trkpt lat="55.6254175" lon="49.4960196"><time>2025-05-18T10:50:23.287</time></trkpt><trkpt lat="55.6254401" lon="49.4959245"><time>2025-05-18T10:50:25.287</time></trkpt><trkpt lat="55.6254560" lon="49.4958290"><time>2025-05-18T10:50:28.287</time></trkpt><trkpt lat="55.6254841" lon="49.4957611"><time>2025-05-18T10:50:31.287</time></trkpt><trkpt lat="55.6255257" lon="49.4956817"><time>2025-05-18T10:50:34.290</time></trkpt><trkpt lat="55.6255587" lon="49.4956178"><time>2025-05-18T10:50:38.290</time></trkpt><trkpt lat="55.6255758" lon="49.4955311"><time>2025-05-18T10:50:43.290</time></trkpt><trkpt lat="55.6255953" lon="49.4954541"><time>2025-05-18T10:50:47.287</time></trkpt><trkpt lat="55.6256212" lon="49.4953859"><time>2025-05-18T10:50:51.290</time></trkpt><trkpt lat="55.6256428" lon="49.4952975"><time>2025-05-18T10:50:55.280</time></trkpt><trkpt lat="55.6256856" lon="49.4952344"><time>2025-05-18T10:50:59.280</time></trkpt><trkpt lat="55.6257225" lon="49.4951598"><time>2025-05-18T10:51:03.287</time></trkpt><trkpt lat="55.6257544" lon="49.4950979"><time>2025-05-18T10:51:07.290</time></trkpt><trkpt lat="55.6257880" lon="49.4950399"><time>2025-05-18T10:51:11.287</time></trkpt><trkpt lat="55.6258022" lon="49.4949476"><time>2025-05-18T10:51:14.280</time></trkpt><trkpt lat="55.6258543" lon="49.4948996"><time>2025-05-18T10:51:17.280</time></trkpt><trkpt lat="55.6259051" lon="49.4948120"><time>2025-05-18T10:51:20.280</time></trkpt><trkpt lat="55.6259494" lon="49.4947449"><time>2025-05-18T10:51:22.287</time></trkpt><trkpt lat="55.6259924" lon="49.4946895"><time>2025-05-18T10:51:24.287</time></trkpt><trkpt lat="55.6260259" lon="49.4946304"><time>2025-05-18T10:51:26.283</time></trkpt><trkpt lat="55.6260726" lon="49.4945534"><time>2025-05-18T10:51:29.283</time></trkpt><trkpt lat="55.6261164" lon="49.4945016"><time>2025-05-18T10:51:32.297</time></trkpt><trkpt lat="55.6261684" lon="49.4944650"><time>2025-05-18T10:51:34.287</time></trkpt><trkpt lat="55.6262183" lon="49.4944135"><time>2025-05-18T10:51:37.290</time></trkpt><trkpt lat="55.6262667" lon="49.4943494"><time>2025-05-18T10:51:41.283</time></trkpt><trkpt lat="55.6263164" lon="49.4942886"><time>2025-05-18T10:51:44.280</time></trkpt><trkpt lat="55.6263669" lon="49.4942493"><time>2025-05-18T10:51:47.283</time></trkpt><trkpt lat="55.6264193" lon="49.4942144"><time>2025-05-18T10:51:50.290</time></trkpt><trkpt lat="55.6264590" lon="49.4941646"><time>2025-05-18T10:51:53.287</time></trkpt><trkpt lat="55.6264994" lon="49.4941117"><time>2025-05-18T10:51:57.290</time></trkpt><trkpt lat="55.6265326" lon="49.4940571"><time>2025-05-18T10:52:02.293</time></trkpt><trkpt lat="55.6265693" lon="49.4940070"><time>2025-05-18T10:52:07.293</time></trkpt><trkpt lat="55.6266170" lon="49.4939563"><time>2025-05-18T10:52:12.287</time></trkpt><trkpt lat="55.6266589" lon="49.4939021"><time>2025-05-18T10:52:15.280</time></trkpt><trkpt lat="55.6267061" lon="49.4938585"><time>2025-05-18T10:52:17.283</time></trkpt><trkpt lat="55.6267470" lon="49.4938251"><time>2025-05-18T10:52:19.283</time></trkpt><trkpt lat="55.6267918" lon="49.4937763"><time>2025-05-18T10:52:22.287</time></trkpt><trkpt lat="55.6268416" lon="49.4937449"><time>2025-05-18T10:52:26.283</time></trkpt><trkpt lat="55.6268814" lon="49.4936766"><time>2025-05-18T10:52:29.287</time></trkpt><trkpt lat="55.6269240" lon="49.4936219"><time>2025-05-18T10:52:33.290</time></trkpt><trkpt lat="55.6269766" lon="49.4935803"><time>2025-05-18T10:52:37.283</time></trkpt><trkpt lat="55.6270192" lon="49.4935385"><time>2025-05-18T10:52:39.280</time></trkpt><trkpt lat="55.6270814" lon="49.4935052"><time>2025-05-18T10:52:42.287</time></trkpt><trkpt lat="55.6271237" lon="49.4934506"><time>2025-05-18T10:52:46.290</time></trkpt><trkpt lat="55.6271500" lon="49.4933786"><time>2025-05-18T10:52:50.277</time></trkpt><trkpt lat="55.6271960" lon="49.4933315"><time>2025-05-18T10:52:53.277</time></trkpt><trkpt lat="55.6272503" lon="49.4932746"><time>2025-05-18T10:52:56.283</time></trkpt><trkpt lat="55.6273067" lon="49.4932465"><time>2025-05-18T10:52:59.283</time></trkpt><trkpt lat="55.6273565" lon="49.4932276"><time>2025-05-18T10:53:01.277</time></trkpt><trkpt lat="55.6274050" lon="49.4931819"><time>2025-05-18T10:53:05.287</time></trkpt><trkpt lat="55.6274293" lon="49.4931128"><time>2025-05-18T10:53:09.287</time></trkpt><trkpt lat="55.6274698" lon="49.4930463"><time>2025-05-18T10:53:13.293</time></trkpt><trkpt lat="55.6275230" lon="49.4930291"><time>2025-05-18T10:53:17.287</time></trkpt><trkpt lat="55.6275729" lon="49.4929876"><time>2025-05-18T10:53:21.287</time></trkpt><trkpt lat="55.6276180" lon="49.4929540"><time>2025-05-18T10:53:25.290</time></trkpt><trkpt lat="55.6276568" lon="49.4929105"><time>2025-05-18T10:53:30.283</time></trkpt><trkpt lat="55.6276967" lon="49.4928649"><time>2025-05-18T10:53:35.287</time></trkpt><trkpt lat="55.6277419" lon="49.4928162"><time>2025-05-18T10:53:40.290</time></trkpt><trkpt lat="55.6277891" lon="49.4927880"><time>2025-05-18T10:53:44.283</time></trkpt><trkpt lat="55.6278292" lon="49.4927411"><time>2025-05-18T10:53:48.287</time></trkpt><trkpt lat="55.6278691" lon="49.4926945"><time>2025-05-18T10:53:52.287</time></trkpt><trkpt lat="55.6279181" lon="49.4926537"><time>2025-05-18T10:53:57.290</time></trkpt><trkpt lat="55.6279595" lon="49.4926129"><time>2025-05-18T10:54:01.287</time></trkpt><trkpt lat="55.6280049" lon="49.4925772"><time>2025-05-18T10:54:05.283</time></trkpt><trkpt lat="55.6280543" lon="49.4925434"><time>2025-05-18T10:54:09.287</time></trkpt><trkpt lat="55.6281024" lon="49.4925156"><time>2025-05-18T10:54:13.287</time></trkpt><trkpt lat="55.6281361" lon="49.4924581"><time>2025-05-18T10:54:17.280</time></trkpt><trkpt lat="55.6281721" lon="49.4923909"><time>2025-05-18T10:54:22.283</time></trkpt><trkpt lat="55.6281996" lon="49.4923280"><time>2025-05-18T10:54:26.283</time></trkpt><trkpt lat="55.6282309" lon="49.4922201"><time>2025-05-18T10:54:30.297</time></trkpt><trkpt lat="55.6282712" lon="49.4921473"><time>2025-05-18T10:54:33.313</time></trkpt><trkpt lat="55.6283097" lon="49.4920884"><time>2025-05-18T10:54:36.287</time></trkpt><trkpt lat="55.6283444" lon="49.4920059"><time>2025-05-18T10:54:39.290</time></trkpt><trkpt lat="55.6283763" lon="49.4919247"><time>2025-05-18T10:54:42.313</time></trkpt><trkpt lat="55.6284087" lon="49.4918415"><time>2025-05-18T10:54:45.287</time></trkpt><trkpt lat="55.6284472" lon="49.4917606"><time>2025-05-18T10:54:48.313</time></trkpt><trkpt lat="55.6284778" lon="49.4916645"><time>2025-05-18T10:54:51.320</time></trkpt><trkpt lat="55.6284853" lon="49.4915692"><time>2025-05-18T10:54:55.277</time></trkpt><trkpt lat="55.6284734" lon="49.4914800"><time>2025-05-18T10:54:59.290</time></trkpt><trkpt lat="55.6284785" lon="49.4913966"><time>2025-05-18T10:55:03.287</time></trkpt><trkpt lat="55.6284831" lon="49.4913007"><time>2025-05-18T10:55:07.287</time></trkpt><trkpt lat="55.6284870" lon="49.4912182"><time>2025-05-18T10:55:10.310</time></trkpt><trkpt lat="55.6284936" lon="49.4911354"><time>2025-05-18T10:55:14.303</time></trkpt><trkpt lat="55.6284961" lon="49.4910465"><time>2025-05-18T10:55:17.290</time></trkpt><trkpt lat="55.6284928" lon="49.4909638"><time>2025-05-18T10:55:20.337</time></trkpt><trkpt lat="55.6284751" lon="49.4908743"><time>2025-05-18T10:55:23.303</time></trkpt><trkpt lat="55.6284622" lon="49.4907616"><time>2025-05-18T10:55:26.310</time></trkpt><trkpt lat="55.6284604" lon="49.4907295"><time>2025-05-18T10:55:28.740</time></trkpt><trkpt lat="55.6285004" lon="49.4906682"><time>2025-05-18T10:55:32.277</time></trkpt><trkpt lat="55.6284892" lon="49.4905870"><time>2025-05-18T10:55:36.277</time></trkpt><trkpt lat="55.6284832" lon="49.4905041"><time>2025-05-18T10:55:41.280</time></trkpt><trkpt lat="55.6284967" lon="49.4904242"><time>2025-05-18T10:55:44.280</time></trkpt><trkpt lat="55.6285207" lon="49.4903349"><time>2025-05-18T10:55:46.277</time></trkpt><trkpt lat="55.6285574" lon="49.4902438"><time>2025-05-18T10:55:48.277</time></trkpt><trkpt lat="55.6285756" lon="49.4901688"><time>2025-05-18T10:55:50.277</time></trkpt><trkpt lat="55.6285784" lon="49.4900824"><time>2025-05-18T10:55:55.277</time></trkpt><trkpt lat="55.6285770" lon="49.4899748"><time>2025-05-18T10:55:58.280</time></trkpt><trkpt lat="55.6285973" lon="49.4898843"><time>2025-05-18T10:56:00.277</time></trkpt><trkpt lat="55.6286291" lon="49.4898251"><time>2025-05-18T10:56:03.283</time></trkpt><trkpt lat="55.6286508" lon="49.4897469"><time>2025-05-18T10:56:07.277</time></trkpt><trkpt lat="55.6286506" lon="49.4896587"><time>2025-05-18T10:56:11.280</time></trkpt><trkpt lat="55.6286453" lon="49.4895760"><time>2025-05-18T10:56:14.280</time></trkpt><trkpt lat="55.6286589" lon="49.4894944"><time>2025-05-18T10:56:17.280</time></trkpt><trkpt lat="55.6286648" lon="49.4894156"><time>2025-05-18T10:56:20.280</time></trkpt><trkpt lat="55.6286976" lon="49.4893235"><time>2025-05-18T10:56:24.280</time></trkpt><trkpt lat="55.6287348" lon="49.4892547"><time>2025-05-18T10:56:27.277</time></trkpt><trkpt lat="55.6287676" lon="49.4891935"><time>2025-05-18T10:56:29.277</time></trkpt><trkpt lat="55.6288047" lon="49.4891133"><time>2025-05-18T10:56:32.277</time></trkpt><trkpt lat="55.6288095" lon="49.4890132"><time>2025-05-18T10:56:36.273</time></trkpt></trkseg></trk></gpx>